Time;durP1;ratioP1;P1;durP2;ratioP2;P2;SDS_P1;SDS_P2;PMS_P1;PMS_P2;Temp;Humidity;BMP_temperature;BMP_pressure;BME280_temperature;BME280_humidity;BME280_pressure;Samples;Min_cycle;Max_cycle;Signal;HPM_P1;HPM_P2
2021/11/09 00:01:21;;;;;;;13.77;4.93;;;9.00;99.90;;;;;;5010473;28;20446;-85
2021/11/09 00:03:51;;;;;;;10.80;4.40;;;9.00;99.90;;;;;;5039402;28;20413;-84
2021/11/09 00:06:23;;;;;;;12.57;4.65;;;9.00;99.90;;;;;;5033933;28;20721;-85
2021/11/09 00:08:58;;;;;;;11.70;4.80;;;9.00;99.90;;;;;;5047021;28;20417;-85
2021/11/09 00:11:28;;;;;;;11.47;4.43;;;9.00;99.90;;;;;;5033903;28;20411;-85
2021/11/09 00:13:56;;;;;;;10.88;4.32;;;9.00;99.90;;;;;;5029926;28;20858;-85
2021/11/09 00:16:24;;;;;;;11.30;5.00;;;9.00;99.90;;;;;;5054805;28;20539;-85
2021/11/09 00:18:53;;;;;;;10.90;4.55;;;9.00;99.90;;;;;;5019908;28;20789;-86
2021/11/09 00:21:22;;;;;;;13.10;4.82;;;9.10;99.90;;;;;;5015779;28;20417;-85
2021/11/09 00:24:18;;;;;;;12.98;5.25;;;9.10;99.90;;;;;;5031189;28;20422;-85
2021/11/09 00:26:46;;;;;;;11.30;4.90;;;9.10;99.90;;;;;;5013436;28;20494;-85
2021/11/09 00:29:15;;;;;;;13.82;5.30;;;9.10;99.90;;;;;;5036698;28;20427;-85
2021/11/09 00:31:45;;;;;;;14.57;4.78;;;9.10;99.90;;;;;;5052848;28;20467;-86
2021/11/09 00:34:14;;;;;;;10.97;4.90;;;9.20;99.90;;;;;;5073151;28;20397;-85
2021/11/09 00:36:43;;;;;;;10.77;4.60;;;9.20;99.90;;;;;;5062360;28;20527;-85
2021/11/09 00:39:12;;;;;;;12.10;5.00;;;9.20;99.90;;;;;;5036815;28;20436;-85
2021/11/09 00:41:43;;;;;;;11.27;4.65;;;9.30;99.90;;;;;;5028816;28;20431;-85
2021/11/09 00:44:35;;;;;;;9.10;4.53;;;9.40;99.90;;;;;;5034417;28;20410;-85
2021/11/09 00:47:08;;;;;;;9.60;5.00;;;9.30;99.90;;;;;;5050928;28;20473;-86
2021/11/09 00:49:37;;;;;;;10.73;4.82;;;9.20;99.90;;;;;;5033201;28;20458;-85
2021/11/09 00:52:06;;;;;;;12.73;5.20;;;9.20;99.90;;;;;;5045025;28;20411;-85
2021/11/09 00:54:36;;;;;;;12.02;4.90;;;9.20;99.90;;;;;;5035542;28;20537;-85
2021/11/09 00:57:06;;;;;;;10.02;4.70;;;9.30;99.90;;;;;;5017293;28;20447;-84
2021/11/09 00:59:35;;;;;;;11.40;4.80;;;9.30;99.90;;;;;;5036034;28;20777;-84
2021/11/09 01:02:04;;;;;;;11.37;5.20;;;9.20;99.90;;;;;;5047124;28;20419;-85
2021/11/09 01:04:33;;;;;;;13.27;5.65;;;9.20;99.90;;;;;;5035011;28;20836;-85
2021/11/09 01:07:01;;;;;;;9.98;4.93;;;9.20;99.90;;;;;;5013803;28;20438;-84
2021/11/09 01:09:30;;;;;;;12.02;4.90;;;9.20;99.90;;;;;;5012113;28;20425;-85
2021/11/09 01:11:59;;;;;;;12.63;4.93;;;9.00;99.90;;;;;;5009384;28;20533;-85
2021/11/09 01:14:30;;;;;;;13.30;5.07;;;9.00;99.90;;;;;;5030352;28;20488;-85
2021/11/09 01:16:59;;;;;;;11.70;4.93;;;9.00;99.90;;;;;;5030564;28;20456;-87
2021/11/09 01:19:31;;;;;;;10.60;5.03;;;9.00;99.90;;;;;;5035941;28;20777;-85
2021/11/09 01:22:03;;;;;;;10.67;5.00;;;9.10;99.90;;;;;;5039943;28;20946;-86
2021/11/09 01:24:31;;;;;;;12.38;4.88;;;9.10;99.90;;;;;;5033235;28;20411;-87
2021/11/09 01:27:01;;;;;;;9.45;4.47;;;9.10;99.90;;;;;;5056805;28;20575;-87
2021/11/09 01:29:31;;;;;;;9.43;4.93;;;9.10;99.90;;;;;;5028289;28;20413;-87
2021/11/09 01:32:01;;;;;;;12.30;5.10;;;9.00;99.90;;;;;;5028689;28;20783;-88
2021/11/09 01:34:30;;;;;;;11.43;4.90;;;9.00;99.90;;;;;;5031523;28;20971;-88
2021/11/09 01:36:59;;;;;;;12.25;4.78;;;9.10;99.90;;;;;;5045019;28;20455;-87
2021/11/09 01:39:28;;;;;;;11.30;4.80;;;9.10;99.90;;;;;;5014158;28;20496;-84
2021/11/09 01:41:57;;;;;;;13.95;4.88;;;9.10;99.90;;;;;;5042917;28;20435;-85
2021/11/09 01:44:26;;;;;;;12.48;5.10;;;9.10;99.90;;;;;;5030447;28;20445;-85
2021/11/09 01:46:56;;;;;;;11.75;4.82;;;8.90;99.90;;;;;;5039807;28;20413;-85
2021/11/09 01:49:25;;;;;;;14.90;4.82;;;8.90;99.90;;;;;;5038944;28;20413;-85
2021/11/09 01:51:54;;;;;;;11.90;4.97;;;9.00;99.90;;;;;;5027816;28;20510;-84
2021/11/09 01:54:23;;;;;;;13.00;4.68;;;9.00;99.90;;;;;;5017456;28;20952;-88
2021/11/09 01:56:51;;;;;;;12.88;5.32;;;9.00;99.90;;;;;;5028259;28;20513;-85
2021/11/09 01:59:20;;;;;;;14.57;4.83;;;9.00;99.90;;;;;;5041431;28;20963;-87
2021/11/09 02:01:49;;;;;;;14.63;4.80;;;8.90;99.90;;;;;;5014771;28;20964;-85
2021/11/09 02:04:20;;;;;;;12.77;4.70;;;8.90;99.90;;;;;;5043131;28;20494;-86
2021/11/09 02:06:48;;;;;;;10.52;4.43;;;8.90;99.90;;;;;;5028681;28;20547;-85
2021/11/09 02:09:19;;;;;;;11.07;4.45;;;8.90;99.90;;;;;;5008356;28;20471;-86
2021/11/09 02:11:49;;;;;;;10.50;4.03;;;8.90;99.90;;;;;;5051071;28;20423;-86
2021/11/09 02:14:17;;;;;;;10.63;4.20;;;8.90;99.90;;;;;;5020434;28;20435;-86
2021/11/09 02:16:47;;;;;;;10.77;4.25;;;8.90;99.90;;;;;;5040232;28;20424;-85
2021/11/09 02:19:16;;;;;;;10.70;4.18;;;8.90;99.90;;;;;;5035015;28;20889;-86
2021/11/09 02:21:46;;;;;;;10.77;4.50;;;8.80;99.90;;;;;;5053719;28;20836;-85
2021/11/09 02:24:15;;;;;;;10.93;4.63;;;8.80;99.90;;;;;;5038262;28;20484;-86
2021/11/09 02:26:44;;;;;;;9.93;4.53;;;8.80;99.90;;;;;;5034919;28;20417;-85
2021/11/09 02:29:12;;;;;;;9.73;4.47;;;8.80;99.90;;;;;;5028114;28;20930;-85
2021/11/09 02:31:41;;;;;;;9.88;4.13;;;8.90;99.90;;;;;;5027820;28;20423;-86
2021/11/09 02:34:10;;;;;;;11.57;4.15;;;8.90;99.90;;;;;;5046028;28;20638;-85
2021/11/09 02:36:39;;;;;;;9.40;4.55;;;8.90;99.90;;;;;;5019512;28;20411;-86
2021/11/09 02:39:10;;;;;;;9.52;4.32;;;9.00;99.90;;;;;;5046077;28;20531;-85
2021/11/09 02:42:08;;;;;;;11.57;4.28;;;9.00;99.90;;;;;;5016239;28;20417;-85
2021/11/09 02:44:47;;;;;;;11.02;4.28;;;9.00;99.90;;;;;;5036045;28;20954;-86
2021/11/09 02:47:16;;;;;;;10.55;4.22;;;8.90;99.90;;;;;;5021217;28;20951;-85
2021/11/09 02:49:53;;;;;;;10.75;4.30;;;8.90;99.90;;;;;;5036068;28;20429;-86
2021/11/09 02:52:52;;;;;;;10.68;4.43;;;8.90;99.90;;;;;;5025218;28;20417;-86
2021/11/09 02:55:29;;;;;;;9.75;4.80;;;8.90;99.90;;;;;;5049519;28;20504;-86
2021/11/09 02:58:09;;;;;;;12.02;4.30;;;8.90;99.90;;;;;;5044813;28;20458;-86
2021/11/09 03:00:44;;;;;;;9.15;4.43;;;8.90;99.90;;;;;;5032762;28;20802;-86
2021/11/09 03:03:17;;;;;;;9.68;4.57;;;9.00;99.90;;;;;;5031732;28;20455;-86
2021/11/09 03:05:49;;;;;;;9.82;4.15;;;8.80;99.90;;;;;;5043468;28;20426;-86
2021/11/09 03:08:27;;;;;;;11.13;4.40;;;8.80;99.90;;;;;;5028144;28;20416;-85
2021/11/09 03:11:01;;;;;;;9.90;4.20;;;8.80;99.90;;;;;;5045086;28;20427;-85
2021/11/09 03:13:31;;;;;;;11.13;4.47;;;8.90;99.90;;;;;;5037533;28;20427;-85
2021/11/09 03:16:04;;;;;;;10.50;4.57;;;8.90;99.90;;;;;;5028048;28;20423;-85
2021/11/09 03:18:39;;;;;;;10.35;4.93;;;8.80;99.90;;;;;;5032196;28;20431;-86
2021/11/09 03:40:37;;;;;;;10.97;4.47;;;8.60;99.90;;;;;;5003330;28;20425;-86
2021/11/09 03:46:10;;;;;;;10.18;3.90;;;8.80;99.90;;;;;;4944740;28;20432;-87
2021/11/09 03:48:38;;;;;;;9.73;4.13;;;8.70;99.90;;;;;;5018874;28;20423;-87
2021/11/09 03:51:10;;;;;;;11.15;3.60;;;8.70;99.90;;;;;;5030150;28;20418;-87
2021/11/09 03:53:39;;;;;;;7.80;3.42;;;8.60;99.90;;;;;;5009919;28;20414;-87
2021/11/09 03:56:18;;;;;;;8.87;3.60;;;8.60;99.90;;;;;;5031798;28;20415;-87
2021/11/09 03:58:49;;;;;;;9.23;4.05;;;8.60;99.90;;;;;;5011734;28;20472;-86
2021/11/09 04:01:20;;;;;;;8.97;4.30;;;8.70;99.90;;;;;;5035321;28;20427;-87
2021/11/09 04:04:03;;;;;;;10.90;4.05;;;8.70;99.90;;;;;;5016101;28;20451;-87
2021/11/09 04:06:35;;;;;;;11.05;4.07;;;8.70;99.90;;;;;;5037878;28;20422;-87
2021/11/09 04:09:10;;;;;;;12.27;3.90;;;8.70;99.90;;;;;;5015425;28;20454;-87
2021/11/09 04:11:48;;;;;;;13.10;4.47;;;8.60;99.90;;;;;;5040692;28;20423;-87
2021/11/09 04:14:26;;;;;;;10.00;3.97;;;8.60;99.90;;;;;;5042832;28;20417;-87
2021/11/09 04:16:59;;;;;;;9.50;3.95;;;8.50;99.90;;;;;;5034456;28;20431;-87
2021/11/09 04:19:38;;;;;;;9.23;4.18;;;8.50;99.90;;;;;;5030927;28;20558;-87
2021/11/09 04:27:57;;;;;;;11.05;5.00;;;8.30;99.90;;;;;;5020917;28;20571;-87
2021/11/09 04:53:37;;;;;;;8.65;3.60;;;7.80;99.90;;;;;;4964195;28;20427;-87
2021/11/09 05:01:50;;;;;;;9.95;4.07;;;7.90;99.90;;;;;;5009790;28;20430;-87
2021/11/09 05:09:55;;;;;;;11.40;3.88;;;7.90;99.90;;;;;;5028653;28;20511;-87
2021/11/09 05:12:27;;;;;;;7.73;3.33;;;7.90;99.90;;;;;;5047631;28;20943;-87
2021/11/09 05:14:56;;;;;;;7.20;3.87;;;7.80;99.90;;;;;;5036873;28;20412;-87
2021/11/09 05:17:25;;;;;;;7.95;3.42;;;7.90;99.90;;;;;;5054708;28;20422;-86
2021/11/09 05:19:55;;;;;;;7.53;3.58;;;7.90;99.90;;;;;;5032214;28;20473;-87
2021/11/09 05:22:23;;;;;;;10.40;3.80;;;7.90;99.90;;;;;;5025500;28;20518;-87
2021/11/09 05:24:52;;;;;;;8.52;3.65;;;7.90;99.90;;;;;;5022318;28;20491;-88
2021/11/09 05:27:47;;;;;;;7.90;3.43;;;7.80;99.90;;;;;;5045561;28;20436;-87
2021/11/09 05:30:17;;;;;;;7.72;3.45;;;7.80;99.90;;;;;;5030304;28;20463;-87
2021/11/09 05:32:47;;;;;;;7.72;3.90;;;7.80;99.90;;;;;;5030194;28;20761;-87
2021/11/09 05:35:18;;;;;;;10.38;4.25;;;7.80;99.90;;;;;;5030361;28;20447;-85
2021/11/09 05:37:49;;;;;;;9.38;3.65;;;7.80;99.90;;;;;;5016085;28;20415;-88
2021/11/09 05:40:21;;;;;;;9.15;3.45;;;7.70;99.90;;;;;;5031547;28;20505;-86
2021/11/09 05:42:50;;;;;;;8.80;3.53;;;7.70;99.90;;;;;;5043408;28;20924;-88
2021/11/09 05:45:19;;;;;;;6.47;3.50;;;7.70;99.90;;;;;;5035127;28;20427;-87
2021/11/09 05:47:48;;;;;;;8.45;3.95;;;7.80;99.90;;;;;;5037604;28;20449;-88
2021/11/09 05:50:19;;;;;;;7.68;3.65;;;7.80;99.90;;;;;;5044413;28;20439;-91
2021/11/09 05:52:49;;;;;;;9.05;3.70;;;7.80;99.90;;;;;;5044916;28;20424;-84
2021/11/09 05:55:18;;;;;;;6.78;3.60;;;7.80;99.90;;;;;;5023403;28;20496;-79
2021/11/09 05:57:46;;;;;;;7.32;2.92;;;7.70;99.90;;;;;;5014592;28;20439;-80
2021/11/09 06:00:15;;;;;;;9.30;3.67;;;7.80;99.90;;;;;;5025963;28;20866;-80
2021/11/09 06:02:44;;;;;;;8.70;3.45;;;7.70;99.90;;;;;;5020072;28;20423;-82
2021/11/09 06:05:13;;;;;;;8.13;3.35;;;7.70;99.90;;;;;;5018889;28;20424;-86
2021/11/09 06:07:43;;;;;;;8.93;3.50;;;7.80;99.90;;;;;;5012889;28;20414;-91
2021/11/09 06:10:11;;;;;;;7.75;3.75;;;7.80;99.90;;;;;;5025397;28;20471;-84
2021/11/09 06:12:41;;;;;;;9.75;3.60;;;7.80;99.90;;;;;;5024860;28;20414;-88
2021/11/09 06:15:10;;;;;;;7.70;3.30;;;7.80;99.90;;;;;;5012409;28;20952;-91
2021/11/09 06:17:41;;;;;;;8.60;3.55;;;7.80;99.90;;;;;;5017620;28;20447;-88
2021/11/09 06:20:11;;;;;;;8.47;3.87;;;7.80;99.90;;;;;;5024452;28;20406;-83
2021/11/09 06:22:42;;;;;;;8.67;3.90;;;7.80;99.90;;;;;;5025627;28;20524;-81
2021/11/09 06:25:10;;;;;;;10.05;3.90;;;7.80;99.90;;;;;;5026777;28;20453;-84
2021/11/09 06:27:39;;;;;;;9.18;3.75;;;7.80;99.90;;;;;;5031056;28;20401;-86
2021/11/09 06:30:09;;;;;;;10.30;3.53;;;7.80;99.90;;;;;;5035984;28;20452;-86
2021/11/09 06:32:38;;;;;;;8.95;3.60;;;7.90;99.90;;;;;;5020981;28;20411;-77
2021/11/09 06:35:07;;;;;;;9.67;3.77;;;7.90;99.90;;;;;;5011350;28;20435;-78
2021/11/09 06:37:36;;;;;;;8.85;3.50;;;8.00;99.90;;;;;;5019952;28;20557;-77
2021/11/09 06:40:08;;;;;;;7.93;3.50;;;8.00;99.90;;;;;;5002397;28;20569;-77
2021/11/09 06:42:37;;;;;;;9.40;3.33;;;8.00;99.90;;;;;;5020889;28;20434;-77
2021/11/09 06:45:08;;;;;;;7.40;3.60;;;8.00;99.90;;;;;;5028094;28;20411;-77
2021/11/09 06:47:38;;;;;;;9.25;3.47;;;8.00;99.90;;;;;;5019128;28;20440;-77
2021/11/09 06:50:13;;;;;;;9.27;4.13;;;7.90;99.90;;;;;;5023558;28;20419;-77
2021/11/09 06:52:42;;;;;;;7.63;3.20;;;7.90;99.90;;;;;;5022503;28;20408;-77
2021/11/09 06:55:12;;;;;;;8.05;3.42;;;7.90;99.90;;;;;;5008746;28;20413;-77
2021/11/09 06:57:43;;;;;;;6.50;3.43;;;7.90;99.90;;;;;;5012848;28;20440;-75
2021/11/09 07:00:14;;;;;;;7.72;3.38;;;7.80;99.90;;;;;;5009509;28;20491;-77
2021/11/09 07:02:44;;;;;;;9.32;3.67;;;7.80;99.90;;;;;;5013782;28;20511;-77
2021/11/09 07:05:14;;;;;;;9.50;3.60;;;7.80;99.90;;;;;;5038677;28;20439;-77
2021/11/09 07:07:44;;;;;;;10.50;3.72;;;7.70;99.90;;;;;;5037545;28;20426;-77
2021/11/09 07:10:16;;;;;;;10.15;3.95;;;7.70;99.90;;;;;;5037698;28;20427;-77
2021/11/09 07:12:45;;;;;;;9.18;3.60;;;7.70;99.90;;;;;;5020506;28;20430;-76
2021/11/09 07:15:14;;;;;;;8.65;3.55;;;7.80;99.90;;;;;;5039819;28;20438;-77
2021/11/09 07:17:43;;;;;;;9.00;3.33;;;7.70;99.90;;;;;;5027636;28;20481;-77
2021/11/09 07:20:14;;;;;;;8.03;3.07;;;7.80;99.90;;;;;;5007480;28;20473;-77
2021/11/09 07:22:43;;;;;;;8.25;3.35;;;7.70;99.90;;;;;;5028302;28;20427;-77
2021/11/09 07:25:19;;;;;;;9.85;3.17;;;7.80;99.90;;;;;;5032448;28;20415;-86
2021/11/09 07:27:48;;;;;;;8.52;3.92;;;7.80;99.90;;;;;;5002694;28;20512;-85
2021/11/09 07:30:17;;;;;;;8.38;3.33;;;7.70;99.90;;;;;;5018253;28;20431;-85
2021/11/09 07:32:46;;;;;;;10.15;3.22;;;7.80;99.90;;;;;;5043494;28;20898;-85
2021/11/09 07:35:16;;;;;;;7.80;3.40;;;7.80;99.90;;;;;;5029528;28;20430;-86
2021/11/09 07:37:46;;;;;;;8.90;3.40;;;7.80;99.90;;;;;;5059096;28;20437;-84
2021/11/09 07:40:14;;;;;;;8.32;3.58;;;7.80;99.90;;;;;;5040725;28;20479;-84
2021/11/09 07:42:48;;;;;;;7.60;3.85;;;7.80;99.90;;;;;;5056758;28;20737;-86
2021/11/09 07:45:19;;;;;;;8.38;3.88;;;7.90;99.90;;;;;;5016652;28;20444;-85
2021/11/09 07:47:49;;;;;;;8.85;3.60;;;7.90;99.90;;;;;;5017671;28;20450;-85
2021/11/09 07:50:21;;;;;;;10.37;4.13;;;7.90;99.90;;;;;;5015069;28;20411;-86
2021/11/09 07:52:53;;;;;;;8.10;3.72;;;8.00;99.90;;;;;;5043337;28;20919;-86
2021/11/09 07:55:22;;;;;;;6.00;3.05;;;7.90;99.90;;;;;;5030777;28;20490;-85
2021/11/09 07:57:54;;;;;;;7.68;3.63;;;8.10;99.90;;;;;;5012454;28;20913;-85
2021/11/09 08:00:25;;;;;;;8.65;3.90;;;8.10;99.90;;;;;;5009925;28;20492;-85
2021/11/09 08:03:05;;;;;;;8.18;3.80;;;8.30;99.90;;;;;;5012718;28;20438;-85
2021/11/09 08:05:37;;;;;;;8.63;3.60;;;8.30;99.90;;;;;;5021175;28;20414;-85
2021/11/09 08:08:37;;;;;;;9.20;3.40;;;8.30;99.90;;;;;;5029802;28;20423;-84
2021/11/09 08:11:11;;;;;;;7.72;3.08;;;8.20;99.90;;;;;;5014372;28;20439;-85
2021/11/09 08:13:42;;;;;;;7.97;3.40;;;8.30;99.90;;;;;;5030798;28;20411;-85
2021/11/09 08:16:12;;;;;;;7.65;3.22;;;8.40;99.90;;;;;;5044675;28;20415;-85
2021/11/09 08:18:41;;;;;;;8.17;3.40;;;8.30;99.90;;;;;;5007961;28;20496;-84
2021/11/09 08:21:11;;;;;;;7.32;3.10;;;8.40;99.90;;;;;;5016781;28;20449;-84
2021/11/09 08:23:40;;;;;;;8.13;3.50;;;8.40;99.90;;;;;;5013413;28;20543;-84
2021/11/09 08:29:08;;;;;;;8.33;3.47;;;8.60;99.90;;;;;;5012889;28;20538;-84
2021/11/09 08:31:42;;;;;;;8.07;3.30;;;8.80;99.90;;;;;;5033600;28;20963;-84
2021/11/09 08:34:11;;;;;;;8.98;3.47;;;8.90;99.90;;;;;;5016325;28;20426;-83
2021/11/09 08:36:43;;;;;;;7.45;3.00;;;8.90;99.90;;;;;;5018717;28;20410;-84
2021/11/09 08:39:18;;;;;;;9.05;3.42;;;9.00;99.90;;;;;;5021327;28;20915;-83
2021/11/09 08:41:57;;;;;;;9.57;3.15;;;9.00;99.90;;;;;;5012423;28;20498;-84
2021/11/09 08:44:32;;;;;;;7.72;3.00;;;9.10;99.90;;;;;;5035582;28;20425;-84
2021/11/09 08:47:27;;;;;;;7.30;3.40;;;9.20;99.90;;;;;;5024257;28;20413;-85
2021/11/09 08:52:49;;;;;;;9.77;3.47;;;9.20;99.90;;;;;;5027623;28;20808;-84
2021/11/09 08:55:32;;;;;;;7.07;2.80;;;9.30;99.90;;;;;;5035193;28;20600;-85
2021/11/09 09:01:19;;;;;;;7.90;2.85;;;9.50;99.90;;;;;;5038078;28;20417;-83
2021/11/09 09:06:36;;;;;;;5.67;2.47;;;9.70;99.90;;;;;;5007770;28;20935;-84
2021/11/09 09:09:05;;;;;;;6.00;2.22;;;9.60;99.90;;;;;;5011409;28;20502;-84
2021/11/09 09:11:35;;;;;;;6.80;2.25;;;9.70;99.90;;;;;;5024756;28;20416;-84
2021/11/09 09:14:06;;;;;;;7.30;2.78;;;9.80;99.90;;;;;;5044954;28;20419;-84
2021/11/09 09:16:36;;;;;;;6.03;2.30;;;9.80;99.90;;;;;;5016671;28;20413;-83
2021/11/09 09:19:06;;;;;;;6.18;2.25;;;9.90;99.90;;;;;;5010071;28;20415;-85
2021/11/09 09:21:39;;;;;;;7.22;2.28;;;10.10;99.90;;;;;;5046198;28;20458;-83
2021/11/09 09:24:15;;;;;;;6.60;2.17;;;10.10;99.90;;;;;;5045324;28;20435;-83
2021/11/09 09:26:50;;;;;;;7.47;1.90;;;10.10;99.90;;;;;;5050948;28;20444;-83
2021/11/09 09:32:30;;;;;;;6.13;1.70;;;10.10;99.90;;;;;;5009543;28;20429;-83
2021/11/09 09:54:51;;;;;;;6.72;1.88;;;10.80;99.90;;;;;;4956300;28;20442;-83
2021/11/09 09:57:20;;;;;;;5.53;1.97;;;11.00;99.90;;;;;;5024086;28;20925;-83
2021/11/09 09:59:51;;;;;;;4.63;1.60;;;11.00;99.90;;;;;;5012947;28;20467;-84
2021/11/09 10:02:24;;;;;;;5.57;1.60;;;11.00;99.90;;;;;;5027254;28;20440;-83
2021/11/09 10:04:58;;;;;;;5.20;2.00;;;11.00;99.90;;;;;;5044569;28;20435;-83
2021/11/09 10:07:30;;;;;;;7.85;2.50;;;11.20;99.90;;;;;;5027850;28;20526;-84
2021/11/09 10:10:00;;;;;;;6.65;1.90;;;11.10;99.90;;;;;;5028050;28;20438;-84
2021/11/09 10:12:56;;;;;;;6.93;1.88;;;10.90;99.90;;;;;;5026203;28;20423;-84
2021/11/09 10:15:27;;;;;;;4.67;2.43;;;10.90;99.90;;;;;;5003934;28;20427;-84
2021/11/09 10:18:00;;;;;;;5.43;1.73;;;10.80;99.90;;;;;;5045084;28;20418;-83
2021/11/09 10:20:32;;;;;;;5.95;2.00;;;10.80;99.90;;;;;;5025102;28;20404;-82
2021/11/09 10:23:03;;;;;;;4.15;1.45;;;10.80;99.90;;;;;;5030608;28;20726;-83
2021/11/09 10:25:35;;;;;;;6.72;1.40;;;10.80;99.90;;;;;;5008988;28;20544;-83
2021/11/09 10:28:13;;;;;;;7.05;1.60;;;10.80;99.90;;;;;;5006779;28;20420;-83
2021/11/09 10:30:46;;;;;;;4.68;1.60;;;10.90;99.90;;;;;;5010920;28;20478;-82
2021/11/09 10:33:17;;;;;;;5.83;1.40;;;10.80;99.90;;;;;;5027880;28;20415;-82
2021/11/09 10:35:48;;;;;;;5.30;1.52;;;10.80;99.90;;;;;;4993564;28;20417;-82
2021/11/09 10:38:17;;;;;;;4.53;1.67;;;10.80;99.90;;;;;;5025260;28;20424;-83
2021/11/09 10:40:49;;;;;;;5.25;1.60;;;10.80;99.90;;;;;;5027609;28;20416;-84
2021/11/09 10:43:22;;;;;;;5.82;1.65;;;10.70;99.80;;;;;;5010055;28;20419;-90
2021/11/09 10:45:51;;;;;;;5.90;1.65;;;10.80;99.90;;;;;;5013442;28;20432;-78
2021/11/09 10:48:23;;;;;;;3.88;1.50;;;10.70;99.90;;;;;;5025629;28;21184;-84
2021/11/09 10:50:56;;;;;;;5.53;1.33;;;10.90;99.90;;;;;;5017753;28;20413;-84
2021/11/09 10:53:31;;;;;;;4.82;1.73;;;11.00;99.90;;;;;;5002989;28;20481;-77
2021/11/09 10:56:19;;;;;;;4.53;1.53;;;11.10;99.70;;;;;;5040862;28;20459;-78
2021/11/09 11:04:19;;;;;;;3.72;1.30;;;11.60;98.60;;;;;;5028443;28;20411;-83
2021/11/09 11:06:49;;;;;;;3.63;1.30;;;11.60;97.60;;;;;;5005412;28;20407;-83
2021/11/09 11:09:22;;;;;;;4.93;1.42;;;11.50;97.30;;;;;;5031503;28;20415;-83
2021/11/09 11:12:06;;;;;;;4.30;1.10;;;11.60;97.80;;;;;;5022451;28;20459;-83
2021/11/09 11:14:36;;;;;;;2.80;0.95;;;11.70;97.00;;;;;;5013991;28;20432;-84
2021/11/09 11:17:08;;;;;;;6.05;1.30;;;11.60;96.50;;;;;;5019474;28;20463;-84
2021/11/09 11:19:40;;;;;;;4.50;1.20;;;11.60;96.80;;;;;;5044938;28;20486;-84
2021/11/09 11:22:12;;;;;;;3.63;1.37;;;11.60;96.90;;;;;;5002535;28;20413;-83
2021/11/09 11:24:42;;;;;;;3.78;1.27;;;11.60;96.70;;;;;;5030134;28;20418;-83
2021/11/09 11:27:13;;;;;;;2.92;1.10;;;11.60;96.70;;;;;;5030635;28;20418;-83
2021/11/09 11:29:43;;;;;;;6.00;1.52;;;11.70;96.80;;;;;;5014529;28;20486;-84
2021/11/09 11:32:15;;;;;;;3.90;1.30;;;11.80;97.00;;;;;;5014245;28;20421;-83
2021/11/09 11:34:44;;;;;;;3.80;1.17;;;12.00;96.60;;;;;;5019481;28;20427;-83
2021/11/09 11:37:18;;;;;;;5.00;1.57;;;12.00;96.80;;;;;;5022654;28;20437;-83
2021/11/09 11:39:48;;;;;;;4.13;1.48;;;12.10;96.40;;;;;;5024306;28;20420;-83
2021/11/09 11:42:18;;;;;;;4.68;1.10;;;12.20;95.90;;;;;;5028178;28;20416;-83
2021/11/09 11:44:56;;;;;;;3.60;1.10;;;12.10;96.00;;;;;;5029353;28;20421;-82
2021/11/09 11:47:27;;;;;;;3.73;1.40;;;12.00;95.50;;;;;;5008884;28;20499;-85
2021/11/09 11:49:59;;;;;;;5.60;1.30;;;12.00;96.40;;;;;;5013189;28;20412;-85
2021/11/09 11:52:53;;;;;;;4.15;1.10;;;12.10;96.20;;;;;;5047944;28;20568;-83
2021/11/09 11:55:24;;;;;;;3.70;1.30;;;12.40;96.10;;;;;;5025855;28;20415;-82
2021/11/09 11:57:55;;;;;;;3.10;0.90;;;12.40;95.90;;;;;;5016167;28;20415;-83
2021/11/09 12:00:35;;;;;;;3.60;1.25;;;12.40;95.90;;;;;;5015104;28;20403;-83
2021/11/09 12:03:22;;;;;;;4.07;1.20;;;12.40;96.00;;;;;;5021316;28;20412;-84
2021/11/09 12:05:52;;;;;;;5.60;1.35;;;12.50;96.00;;;;;;5030596;28;20427;-85
2021/11/09 12:08:39;;;;;;;3.80;1.20;;;12.50;95.90;;;;;;5041245;28;20411;-85
2021/11/09 12:11:10;;;;;;;4.90;1.50;;;12.50;95.60;;;;;;5016722;28;20430;-83
2021/11/09 12:13:56;;;;;;;3.75;1.17;;;12.40;95.80;;;;;;5011138;28;20417;-83
2021/11/09 12:16:42;;;;;;;6.50;1.50;;;12.30;96.10;;;;;;5030804;28;20457;-82
2021/11/09 12:19:57;;;;;;;3.30;1.35;;;12.30;95.90;;;;;;5063075;28;20413;-84
2021/11/09 12:22:44;;;;;;;3.55;1.00;;;12.40;96.00;;;;;;5035075;28;20431;-85
2021/11/09 12:25:35;;;;;;;3.33;0.90;;;12.40;95.70;;;;;;5040207;28;20893;-85
2021/11/09 12:28:07;;;;;;;6.10;1.80;;;12.50;96.00;;;;;;5027523;28;20880;-91
2021/11/09 12:30:42;;;;;;;4.03;1.20;;;12.60;95.50;;;;;;5041301;28;20468;-85
2021/11/09 12:33:14;;;;;;;3.33;1.13;;;12.70;95.40;;;;;;5028694;28;20510;-86
2021/11/09 12:36:20;;;;;;;3.85;1.30;;;12.60;95.40;;;;;;5007937;28;20425;-85
2021/11/09 12:38:51;;;;;;;4.20;0.90;;;12.60;95.10;;;;;;5020041;28;20458;-85
2021/11/09 12:41:22;;;;;;;2.70;0.90;;;12.60;95.10;;;;;;5012301;28;20498;-83
2021/11/09 12:43:53;;;;;;;2.92;0.98;;;12.60;95.10;;;;;;5022218;28;20438;-83
2021/11/09 12:46:26;;;;;;;3.25;0.80;;;12.50;95.20;;;;;;5025401;28;20422;-82
2021/11/09 12:48:58;;;;;;;2.95;0.70;;;12.50;94.90;;;;;;5026505;28;20442;-85
2021/11/09 12:51:29;;;;;;;3.20;0.82;;;12.70;94.80;;;;;;5009537;28;20417;-85
2021/11/09 12:54:03;;;;;;;2.90;0.80;;;12.70;94.50;;;;;;5003300;28;20923;-85
2021/11/09 12:56:36;;;;;;;3.20;0.90;;;12.70;94.40;;;;;;5005504;28;20409;-85
2021/11/09 12:59:09;;;;;;;4.07;0.98;;;12.70;94.30;;;;;;5029129;28;20426;-84
2021/11/09 13:04:28;;;;;;;3.90;0.83;;;12.80;94.00;;;;;;5026883;28;20464;-86
2021/11/09 13:07:11;;;;;;;4.10;0.77;;;12.80;94.40;;;;;;5013655;28;20529;-85
2021/11/09 13:09:44;;;;;;;4.55;0.95;;;12.80;94.00;;;;;;5028364;28;20409;-85
2021/11/09 13:12:17;;;;;;;4.20;0.82;;;12.80;94.70;;;;;;5030518;28;20475;-85
2021/11/09 13:14:47;;;;;;;4.68;0.90;;;12.80;93.60;;;;;;5030256;28;20407;-85
2021/11/09 13:20:36;;;;;;;2.80;0.80;;;12.90;94.00;;;;;;5000330;28;20423;-84
2021/11/09 13:23:08;;;;;;;3.90;0.90;;;12.70;93.80;;;;;;5022398;28;20407;-84
2021/11/09 13:25:39;;;;;;;3.05;0.70;;;12.70;94.00;;;;;;5026605;28;20424;-83
2021/11/09 13:28:20;;;;;;;3.63;0.90;;;12.80;94.60;;;;;;5023809;28;20510;-85
2021/11/09 13:30:51;;;;;;;3.60;0.90;;;12.80;94.80;;;;;;5012305;28;20492;-84
2021/11/09 13:33:21;;;;;;;4.63;1.00;;;12.90;94.50;;;;;;5029255;28;20414;-84
2021/11/09 13:35:50;;;;;;;3.63;0.88;;;12.90;94.20;;;;;;5005929;28;20449;-85
2021/11/09 13:38:21;;;;;;;3.30;0.70;;;12.90;94.20;;;;;;5042532;28;20413;-84
2021/11/09 13:40:52;;;;;;;2.88;1.00;;;12.80;94.20;;;;;;5016942;28;20424;-84
2021/11/09 13:43:25;;;;;;;3.10;0.90;;;12.80;94.60;;;;;;5022071;28;20514;-81
2021/11/09 13:45:59;;;;;;;2.87;1.00;;;12.90;94.60;;;;;;5046594;28;20423;-79
2021/11/09 13:48:29;;;;;;;4.63;1.10;;;13.00;94.30;;;;;;5051916;28;20962;-84
2021/11/09 13:51:01;;;;;;;2.75;0.80;;;12.90;94.10;;;;;;5026541;28;20470;-86
2021/11/09 13:53:34;;;;;;;4.40;1.02;;;12.90;94.60;;;;;;5007845;28;20411;-86
2021/11/09 13:56:08;;;;;;;3.97;1.05;;;12.90;94.60;;;;;;5005621;28;20772;-86
2021/11/09 13:58:38;;;;;;;4.20;1.10;;;12.80;94.10;;;;;;5010625;28;20469;-85
2021/11/09 14:01:13;;;;;;;2.95;0.75;;;12.80;93.80;;;;;;5024807;28;20419;-86
2021/11/09 14:04:00;;;;;;;3.35;0.80;;;12.70;93.90;;;;;;5025380;28;20784;-85
2021/11/09 14:06:52;;;;;;;3.78;1.17;;;12.60;94.30;;;;;;5011560;28;20431;-86
2021/11/09 14:12:44;;;;;;;4.45;1.00;;;12.60;94.10;;;;;;5010996;28;20442;-86
2021/11/09 14:15:36;;;;;;;4.75;0.90;;;12.70;94.20;;;;;;5026130;28;20774;-86
2021/11/09 14:18:12;;;;;;;3.72;0.90;;;12.70;94.10;;;;;;5024241;28;20447;-85
2021/11/09 14:20:51;;;;;;;3.17;0.95;;;12.70;94.50;;;;;;5019486;28;20502;-86
2021/11/09 14:23:30;;;;;;;2.77;0.80;;;12.70;94.20;;;;;;5024876;28;21004;-85
2021/11/09 14:26:00;;;;;;;3.07;0.80;;;12.70;94.30;;;;;;4999921;28;20811;-86
2021/11/09 14:28:34;;;;;;;4.03;0.80;;;12.60;94.00;;;;;;5009181;28;20423;-86
2021/11/09 14:31:16;;;;;;;3.55;0.60;;;12.70;94.00;;;;;;5027083;28;20407;-86
2021/11/09 14:33:48;;;;;;;3.10;0.80;;;12.60;94.10;;;;;;5038627;28;20407;-85
2021/11/09 14:36:33;;;;;;;2.72;0.80;;;12.60;93.50;;;;;;5015452;28;20534;-85
2021/11/09 14:39:16;;;;;;;5.00;0.98;;;12.50;94.00;;;;;;5022184;28;20423;-86
2021/11/09 14:42:07;;;;;;;3.40;0.80;;;12.50;93.70;;;;;;5039621;28;20448;-86
2021/11/09 14:45:06;;;;;;;3.33;0.80;;;12.60;94.10;;;;;;5022584;28;20417;-85
2021/11/09 14:47:44;;;;;;;3.53;1.03;;;12.60;94.00;;;;;;5008121;28;22247;-85
2021/11/09 14:50:22;;;;;;;2.45;0.70;;;12.40;94.00;;;;;;5013784;28;20410;-85
2021/11/09 14:52:52;;;;;;;2.58;0.80;;;12.50;94.30;;;;;;5011405;28;20411;-86
2021/11/09 14:55:27;;;;;;;2.67;0.60;;;12.40;94.00;;;;;;5028700;28;20409;-87
2021/11/09 14:57:56;;;;;;;3.10;0.68;;;12.30;93.90;;;;;;5008908;28;20777;-89
2021/11/09 15:00:26;;;;;;;3.33;0.63;;;12.30;94.70;;;;;;5024263;28;20411;-82
2021/11/09 15:03:06;;;;;;;3.50;0.82;;;12.40;94.00;;;;;;5018074;28;20467;-83
2021/11/09 15:05:36;;;;;;;3.53;0.83;;;12.40;94.40;;;;;;5015509;28;20488;-95
2021/11/09 15:08:20;;;;;;;2.97;0.60;;;12.30;94.30;;;;;;5025973;28;20419;-92
2021/11/09 15:28:00;;;;;;;4.50;1.20;;;12.10;95.60;;;;;;5009194;28;20427;-81
2021/11/09 15:30:41;;;;;;;3.87;1.00;;;12.00;95.30;;;;;;5019657;28;20477;-81